Time;durP1;ratioP1;P1;durP2;ratioP2;P2;SDS_P1;SDS_P2;PMS_P1;PMS_P2;Temp;Humidity;BMP_temperature;BMP_pressure;BME280_temperature;BME280_humidity;BME280_pressure;Samples;Min_cycle;Max_cycle;Signal;HPM_P1;HPM_P2
2023/06/12 00:02:04;;;;;;;0.00;0.00;;;21.50;53.90;;;;;;4992068;28;20122;-65
2023/06/12 00:04:30;;;;;;;0.00;0.00;;;21.50;53.80;;;;;;4991903;28;20396;-64
2023/06/12 00:06:57;;;;;;;0.00;0.00;;;21.50;53.80;;;;;;4990308;28;20039;-64
2023/06/12 00:09:23;;;;;;;0.00;0.00;;;21.40;53.80;;;;;;4992043;28;20058;-63
2023/06/12 00:11:48;;;;;;;0.00;0.00;;;21.40;53.90;;;;;;4985424;28;20046;-64
2023/06/12 00:14:14;;;;;;;0.00;0.00;;;21.40;53.90;;;;;;4992327;28;20093;-64
2023/06/12 00:16:39;;;;;;;0.00;0.00;;;21.30;54.20;;;;;;4966966;28;20522;-64
2023/06/12 00:19:05;;;;;;;0.00;0.00;;;21.20;54.20;;;;;;4972690;28;20051;-64
2023/06/12 00:21:30;;;;;;;0.00;0.00;;;21.20;54.20;;;;;;4975925;28;20038;-64
2023/06/12 00:23:56;;;;;;;0.00;0.00;;;21.20;54.40;;;;;;4991495;28;20496;-64
2023/06/12 00:26:22;;;;;;;0.22;0.22;;;21.10;54.90;;;;;;4985196;28;20042;-64
2023/06/12 00:28:47;;;;;;;0.00;0.00;;;21.10;54.90;;;;;;4991782;28;20678;-64
2023/06/12 00:31:13;;;;;;;0.00;0.00;;;21.10;55.00;;;;;;4991553;28;20121;-65
2023/06/12 00:33:40;;;;;;;0.10;0.10;;;21.10;55.90;;;;;;4982166;28;20151;-64
2023/06/12 00:36:06;;;;;;;0.00;0.00;;;21.00;55.70;;;;;;4985223;28;20054;-64
2023/06/12 00:38:34;;;;;;;0.00;0.00;;;20.90;55.40;;;;;;4986266;28;20039;-64
2023/06/12 00:41:00;;;;;;;0.00;0.00;;;20.90;55.20;;;;;;4986667;28;20047;-65
2023/06/12 00:43:25;;;;;;;0.00;0.00;;;20.80;55.10;;;;;;4991258;28;20065;-64
2023/06/12 00:45:51;;;;;;;0.00;0.00;;;20.90;55.10;;;;;;4991272;28;20161;-64
2023/06/12 00:48:17;;;;;;;0.00;0.00;;;20.80;55.20;;;;;;4968079;28;20079;-64
2023/06/12 00:50:44;;;;;;;0.00;0.00;;;20.80;55.30;;;;;;4990133;28;20511;-64
2023/06/12 00:53:10;;;;;;;0.00;0.00;;;20.80;55.50;;;;;;4990450;28;20476;-64
2023/06/12 00:55:36;;;;;;;0.00;0.00;;;20.70;55.90;;;;;;4973404;28;20086;-65
2023/06/12 00:58:02;;;;;;;0.00;0.00;;;20.70;55.80;;;;;;4983274;28;20097;-64
2023/06/12 01:00:28;;;;;;;0.00;0.00;;;20.60;55.90;;;;;;4985923;28;20121;-64
2023/06/12 01:02:58;;;;;;;0.00;0.00;;;20.60;55.80;;;;;;4971943;28;20763;-64
2023/06/12 01:05:33;;;;;;;0.00;0.00;;;20.50;56.30;;;;;;4989613;28;20105;-64
2023/06/12 01:08:20;;;;;;;0.00;0.00;;;20.50;56.50;;;;;;4973285;28;20173;-64
2023/06/12 01:10:50;;;;;;;0.00;0.00;;;20.50;56.40;;;;;;4990782;28;20050;-64
2023/06/12 01:13:17;;;;;;;0.10;0.10;;;20.50;56.10;;;;;;4983872;28;20058;-64
2023/06/12 01:15:43;;;;;;;0.00;0.00;;;20.40;56.50;;;;;;4973818;28;20039;-64
2023/06/12 01:18:09;;;;;;;0.00;0.00;;;20.40;56.70;;;;;;4971406;28;20118;-63
2023/06/12 01:20:35;;;;;;;0.00;0.00;;;20.40;56.90;;;;;;4972019;28;20039;-64
2023/06/12 01:23:32;;;;;;;0.00;0.00;;;20.30;57.20;;;;;;4962866;28;20038;-63
2023/06/12 01:26:26;;;;;;;0.00;0.00;;;20.30;57.20;;;;;;4955580;28;20504;-63
2023/06/12 01:29:01;;;;;;;0.00;0.00;;;20.30;57.00;;;;;;4972071;28;20540;-63
2023/06/12 01:31:43;;;;;;;0.00;0.00;;;20.30;56.90;;;;;;4982603;28;20049;-64
2023/06/12 01:34:16;;;;;;;0.00;0.00;;;20.20;57.20;;;;;;4990094;28;20053;-63
2023/06/12 01:36:48;;;;;;;0.00;0.00;;;20.20;57.20;;;;;;4969433;28;20181;-64
2023/06/12 01:39:15;;;;;;;0.00;0.00;;;20.20;57.30;;;;;;4989783;28;20038;-64
2023/06/12 01:41:41;;;;;;;0.00;0.00;;;20.10;57.30;;;;;;4982131;28;20492;-63
2023/06/12 01:44:08;;;;;;;0.00;0.00;;;20.10;57.40;;;;;;4987050;28;20491;-64
2023/06/12 01:46:35;;;;;;;0.00;0.00;;;20.10;58.20;;;;;;4979717;28;20042;-63
2023/06/12 01:49:04;;;;;;;0.00;0.00;;;20.00;57.80;;;;;;4990371;28;20579;-64
2023/06/12 01:51:30;;;;;;;0.00;0.00;;;20.00;57.80;;;;;;4967739;28;20047;-64
2023/06/12 01:53:55;;;;;;;0.00;0.00;;;19.90;58.10;;;;;;4989965;28;20037;-63
2023/06/12 01:56:25;;;;;;;0.00;0.00;;;19.90;58.70;;;;;;4989908;28;20046;-64
2023/06/12 01:58:54;;;;;;;0.00;0.00;;;19.90;58.70;;;;;;4989042;28;20038;-64
2023/06/12 02:01:20;;;;;;;0.00;0.00;;;19.90;58.60;;;;;;4975538;28;20176;-63
2023/06/12 02:03:47;;;;;;;0.00;0.00;;;19.80;58.90;;;;;;4972510;28;20109;-63
2023/06/12 02:06:17;;;;;;;0.00;0.00;;;19.70;59.50;;;;;;4984722;28;20047;-64
2023/06/12 02:08:43;;;;;;;0.00;0.00;;;19.70;59.10;;;;;;4990112;28;20789;-64
2023/06/12 02:11:09;;;;;;;0.03;0.03;;;19.70;59.60;;;;;;4990012;28;20124;-64
2023/06/12 02:13:35;;;;;;;0.00;0.00;;;19.70;59.90;;;;;;4990026;28;20097;-63
2023/06/12 02:16:05;;;;;;;0.00;0.00;;;19.60;59.90;;;;;;4955030;28;20142;-63
2023/06/12 02:18:31;;;;;;;0.00;0.00;;;19.60;60.10;;;;;;4989814;28;20174;-64
2023/06/12 02:20:56;;;;;;;0.00;0.00;;;19.50;60.30;;;;;;4990141;28;20125;-64
2023/06/12 02:23:22;;;;;;;0.00;0.00;;;19.50;60.80;;;;;;4971978;28;20057;-64
2023/06/12 02:25:47;;;;;;;0.43;0.25;;;19.50;60.80;;;;;;4988603;28;20058;-63
2023/06/12 02:28:13;;;;;;;0.00;0.00;;;19.40;60.70;;;;;;4989215;28;20121;-63
2023/06/12 02:30:39;;;;;;;0.00;0.00;;;19.40;60.90;;;;;;4996865;28;20545;-63
2023/06/12 02:33:09;;;;;;;0.00;0.00;;;19.30;61.00;;;;;;4992006;28;20495;-64
2023/06/12 02:35:35;;;;;;;0.00;0.00;;;19.30;61.20;;;;;;4966661;28;20400;-64
2023/06/12 02:38:01;;;;;;;0.00;0.00;;;19.20;62.00;;;;;;4988962;28;20053;-63
2023/06/12 02:40:26;;;;;;;0.00;0.00;;;19.10;61.00;;;;;;4990092;28;20050;-64
2023/06/12 02:42:52;;;;;;;0.00;0.00;;;19.20;61.00;;;;;;4989408;28;20053;-63
2023/06/12 02:45:18;;;;;;;0.00;0.00;;;19.10;61.50;;;;;;4989209;28;20145;-64
2023/06/12 02:47:43;;;;;;;0.00;0.00;;;19.10;62.10;;;;;;4988710;28;20039;-63
2023/06/12 02:50:09;;;;;;;0.00;0.00;;;19.00;61.80;;;;;;4993648;28;20046;-63
2023/06/12 02:52:35;;;;;;;0.00;0.00;;;19.00;61.50;;;;;;4993614;28;20042;-64
2023/06/12 02:55:00;;;;;;;0.00;0.00;;;19.00;61.90;;;;;;4991025;28;20130;-64
2023/06/12 02:57:26;;;;;;;0.00;0.00;;;19.00;62.20;;;;;;4974082;28;20059;-64
2023/06/12 02:59:51;;;;;;;0.00;0.00;;;19.00;62.10;;;;;;4975778;28;20050;-64
2023/06/12 03:02:17;;;;;;;0.00;0.00;;;18.90;62.40;;;;;;4976396;28;20522;-64
2023/06/12 03:04:42;;;;;;;0.10;0.10;;;18.90;62.30;;;;;;4993294;28;20090;-64
2023/06/12 03:07:08;;;;;;;0.00;0.00;;;18.90;62.00;;;;;;4993619;28;20044;-65
2023/06/12 03:09:34;;;;;;;0.00;0.00;;;18.90;62.50;;;;;;4976067;28;20058;-64
2023/06/12 03:12:00;;;;;;;0.10;0.10;;;18.80;62.80;;;;;;4993318;28;20625;-64
2023/06/12 03:14:26;;;;;;;0.10;0.10;;;18.80;63.00;;;;;;4993424;28;20061;-63
2023/06/12 03:16:52;;;;;;;0.00;0.00;;;18.80;62.50;;;;;;4985605;28;20488;-64
2023/06/12 03:19:18;;;;;;;0.00;0.00;;;18.80;62.40;;;;;;4973540;28;20043;-64
2023/06/12 03:21:44;;;;;;;0.00;0.00;;;18.80;63.00;;;;;;4974035;28;20511;-64
2023/06/12 03:24:09;;;;;;;0.00;0.00;;;18.80;63.00;;;;;;4973212;28;20053;-64
2023/06/12 03:26:35;;;;;;;0.00;0.00;;;18.80;62.70;;;;;;4992496;28;20034;-65
2023/06/12 03:29:01;;;;;;;0.00;0.00;;;18.70;62.30;;;;;;4992859;28;20046;-63
2023/06/12 03:31:28;;;;;;;0.00;0.00;;;18.70;62.20;;;;;;4975429;28;20125;-65
2023/06/12 03:33:54;;;;;;;0.00;0.00;;;18.70;62.70;;;;;;4974912;28;20491;-64
2023/06/12 03:36:21;;;;;;;0.00;0.00;;;18.60;62.50;;;;;;4992351;28;20058;-64
2023/06/12 03:38:47;;;;;;;0.00;0.00;;;18.60;62.70;;;;;;4992952;28;20133;-64
2023/06/12 03:41:12;;;;;;;0.00;0.00;;;18.60;63.00;;;;;;4992613;28;20044;-64
2023/06/12 03:43:38;;;;;;;0.00;0.00;;;18.60;62.70;;;;;;4992733;28;20042;-66
2023/06/12 03:46:04;;;;;;;0.00;0.00;;;18.50;62.60;;;;;;4992602;28;20049;-64
2023/06/12 03:48:30;;;;;;;0.00;0.00;;;18.50;62.90;;;;;;4992226;28;20069;-64
2023/06/12 03:50:55;;;;;;;0.00;0.00;;;18.50;62.50;;;;;;4992147;28;20047;-64
2023/06/12 03:53:21;;;;;;;0.13;0.13;;;18.50;63.20;;;;;;4992034;28;20459;-64
2023/06/12 03:55:46;;;;;;;0.00;0.00;;;18.50;63.20;;;;;;4981449;28;20051;-64
2023/06/12 03:58:16;;;;;;;0.00;0.00;;;18.50;63.90;;;;;;4989709;28;20121;-64
2023/06/12 04:00:43;;;;;;;0.00;0.00;;;18.40;63.50;;;;;;4980598;28;20399;-64
2023/06/12 04:03:09;;;;;;;0.00;0.00;;;18.50;63.40;;;;;;4992724;28;20093;-64
2023/06/12 04:05:34;;;;;;;0.00;0.00;;;18.50;63.70;;;;;;4992236;28;20074;-64
2023/06/12 04:08:00;;;;;;;0.00;0.00;;;18.50;64.30;;;;;;4974682;28;20057;-63
2023/06/12 04:10:25;;;;;;;0.28;0.28;;;18.50;64.30;;;;;;4994075;28;20058;-64
2023/06/12 04:12:51;;;;;;;0.03;0.03;;;18.50;64.00;;;;;;4992113;28;20069;-64
2023/06/12 04:15:17;;;;;;;0.00;0.00;;;18.40;64.10;;;;;;4984980;28;20030;-64
2023/06/12 04:17:42;;;;;;;0.00;0.00;;;18.50;64.20;;;;;;4973150;28;20126;-64
2023/06/12 04:20:08;;;;;;;0.00;0.00;;;18.50;64.40;;;;;;4991310;28;20701;-64
2023/06/12 04:22:35;;;;;;;0.00;0.00;;;18.50;64.60;;;;;;4974654;28;20052;-64
2023/06/12 04:25:04;;;;;;;0.00;0.00;;;18.50;64.50;;;;;;4987290;28;20109;-64
2023/06/12 04:27:30;;;;;;;0.00;0.00;;;18.50;64.70;;;;;;4967015;28;20056;-64
2023/06/12 04:29:59;;;;;;;0.00;0.00;;;18.60;64.90;;;;;;4974535;28;20038;-64
2023/06/12 04:32:25;;;;;;;0.00;0.00;;;18.60;64.80;;;;;;4991235;28;20799;-64
2023/06/12 04:34:50;;;;;;;0.00;0.00;;;18.60;65.40;;;;;;4991030;28;20066;-63
2023/06/12 04:37:18;;;;;;;0.00;0.00;;;18.60;65.80;;;;;;4991810;28;20034;-64
2023/06/12 04:39:45;;;;;;;0.00;0.00;;;18.70;65.80;;;;;;4988356;28;20045;-64
2023/06/12 04:42:16;;;;;;;0.00;0.00;;;18.70;66.40;;;;;;4974110;28;20572;-64
2023/06/12 04:44:42;;;;;;;0.00;0.00;;;18.70;65.90;;;;;;4988928;28;20062;-64
2023/06/12 04:47:10;;;;;;;0.00;0.00;;;18.80;65.80;;;;;;4989871;28;20133;-64
2023/06/12 04:49:37;;;;;;;0.00;0.00;;;18.80;65.50;;;;;;4987767;28;20109;-64
2023/06/12 04:52:03;;;;;;;0.00;0.00;;;18.80;65.50;;;;;;4988303;28;20038;-63
2023/06/12 04:54:35;;;;;;;0.00;0.00;;;18.80;66.00;;;;;;4971957;28;20104;-66
2023/06/12 04:57:07;;;;;;;0.00;0.00;;;18.90;65.70;;;;;;4975734;28;20527;-64
2023/06/12 04:59:37;;;;;;;0.00;0.00;;;18.90;65.80;;;;;;5009819;28;20052;-63
2023/06/12 05:02:03;;;;;;;0.00;0.00;;;19.00;65.90;;;;;;5009888;28;20410;-63
2023/06/12 05:04:29;;;;;;;0.00;0.00;;;19.00;65.80;;;;;;4991228;28;20053;-63
2023/06/12 05:06:56;;;;;;;0.00;0.00;;;19.00;65.70;;;;;;4991327;28;20604;-64
2023/06/12 05:09:21;;;;;;;0.00;0.00;;;19.00;65.70;;;;;;4991179;28;20522;-63
2023/06/12 05:11:47;;;;;;;0.00;0.00;;;19.10;65.50;;;;;;4972821;28;20050;-64
2023/06/12 05:14:13;;;;;;;0.00;0.00;;;19.10;65.60;;;;;;4991697;28;20053;-64
2023/06/12 05:16:38;;;;;;;0.00;0.00;;;19.10;65.80;;;;;;4998007;28;20049;-64
2023/06/12 05:19:05;;;;;;;0.00;0.00;;;19.10;66.10;;;;;;4990221;28;20053;-64
2023/06/12 05:21:30;;;;;;;0.00;0.00;;;19.20;66.10;;;;;;4986116;28;20529;-63
2023/06/12 05:23:56;;;;;;;0.00;0.00;;;19.30;67.40;;;;;;4989711;28;20039;-64
2023/06/12 05:26:22;;;;;;;0.00;0.00;;;19.30;66.90;;;;;;4984826;28;20049;-64
2023/06/12 05:28:47;;;;;;;0.00;0.00;;;19.30;66.50;;;;;;4989934;28;20042;-63
2023/06/12 05:31:13;;;;;;;0.00;0.00;;;19.40;66.30;;;;;;4988733;28;20041;-63
2023/06/12 05:33:39;;;;;;;0.00;0.00;;;19.40;65.80;;;;;;4975241;28;20051;-63
2023/06/12 05:36:07;;;;;;;0.00;0.00;;;19.50;65.60;;;;;;4959995;28;20405;-64
2023/06/12 05:38:32;;;;;;;0.00;0.00;;;19.50;65.80;;;;;;4967051;28;20581;-63
2023/06/12 05:40:58;;;;;;;0.00;0.00;;;19.50;65.60;;;;;;4973607;28;20073;-63
2023/06/12 05:43:24;;;;;;;0.00;0.00;;;19.50;66.40;;;;;;5000979;28;20034;-63
2023/06/12 05:45:49;;;;;;;0.00;0.00;;;19.60;66.00;;;;;;4989530;28;20050;-64
2023/06/12 05:48:15;;;;;;;0.00;0.00;;;19.60;66.10;;;;;;4984645;28;20054;-63
2023/06/12 05:50:40;;;;;;;0.00;0.00;;;19.60;65.90;;;;;;4988584;28;20031;-64
2023/06/12 05:53:08;;;;;;;0.00;0.00;;;19.70;66.00;;;;;;4989980;28;20061;-63
2023/06/12 05:55:34;;;;;;;1.08;0.70;;;19.80;66.20;;;;;;4988208;28;20427;-63
2023/06/12 05:57:59;;;;;;;0.00;0.00;;;19.80;66.40;;;;;;4990130;28;20042;-63
2023/06/12 06:00:25;;;;;;;0.00;0.00;;;19.80;66.50;;;;;;4990222;28;20049;-62
2023/06/12 06:02:51;;;;;;;0.00;0.00;;;19.90;66.10;;;;;;4978135;28;20507;-62
2023/06/12 06:05:17;;;;;;;0.00;0.00;;;20.00;66.00;;;;;;4987879;28;20138;-63
2023/06/12 06:07:43;;;;;;;0.80;0.75;;;20.00;66.10;;;;;;4985131;28;20067;-63
2023/06/12 06:10:08;;;;;;;0.00;0.00;;;20.00;65.70;;;;;;4976184;28;20070;-63
2023/06/12 06:12:34;;;;;;;0.00;0.00;;;20.10;65.60;;;;;;4975197;28;20042;-63
2023/06/12 06:15:00;;;;;;;0.00;0.00;;;20.10;65.90;;;;;;4974301;28;20043;-63
2023/06/12 06:17:26;;;;;;;0.00;0.00;;;20.20;66.20;;;;;;4952689;28;20046;-63
2023/06/12 06:19:51;;;;;;;0.00;0.00;;;20.20;65.70;;;;;;4971289;28;20384;-63
2023/06/12 06:22:20;;;;;;;0.00;0.00;;;20.30;65.60;;;;;;4971237;28;20030;-64
2023/06/12 06:24:45;;;;;;;0.00;0.00;;;20.30;66.20;;;;;;4990255;28;20046;-64
2023/06/12 06:27:11;;;;;;;0.00;0.00;;;20.40;65.40;;;;;;4989463;28;20514;-63
2023/06/12 06:29:36;;;;;;;0.00;0.00;;;20.40;65.00;;;;;;4987456;28;20898;-63
2023/06/12 06:32:02;;;;;;;0.00;0.00;;;20.50;64.70;;;;;;4987515;28;20038;-63
2023/06/12 06:34:28;;;;;;;0.00;0.00;;;20.50;65.50;;;;;;4982636;28;20057;-64
2023/06/12 06:36:55;;;;;;;0.13;0.13;;;20.50;65.20;;;;;;4984754;28;20050;-63
2023/06/12 06:39:21;;;;;;;0.00;0.00;;;20.60;65.80;;;;;;4981233;28;20130;-62
2023/06/12 06:41:47;;;;;;;0.00;0.00;;;20.50;64.80;;;;;;4985276;28;20034;-64
2023/06/12 06:44:12;;;;;;;0.00;0.00;;;20.50;64.90;;;;;;4989505;28;20046;-64
2023/06/12 06:46:38;;;;;;;0.00;0.00;;;20.50;64.80;;;;;;4992228;28;20052;-65
2023/06/12 06:49:03;;;;;;;0.10;0.10;;;20.60;66.10;;;;;;4990429;28;20082;-64
2023/06/12 06:51:32;;;;;;;0.00;0.00;;;20.80;67.00;;;;;;4971995;28;20058;-66
2023/06/12 06:53:57;;;;;;;0.00;0.00;;;20.90;65.50;;;;;;4964206;28;20148;-65
2023/06/12 06:56:23;;;;;;;0.00;0.00;;;20.90;65.00;;;;;;4996873;28;20152;-65
2023/06/12 06:58:49;;;;;;;0.00;0.00;;;20.90;64.40;;;;;;4974616;28;20061;-65
2023/06/12 07:01:15;;;;;;;0.00;0.00;;;20.90;64.20;;;;;;4997483;28;20124;-65
2023/06/12 07:03:41;;;;;;;0.00;0.00;;;20.90;64.40;;;;;;4992928;28;20054;-65
2023/06/12 07:06:07;;;;;;;0.00;0.00;;;21.00;64.70;;;;;;4995942;28;20061;-65
2023/06/12 07:08:32;;;;;;;0.17;0.17;;;21.00;64.60;;;;;;4994360;28;20053;-65
2023/06/12 07:10:58;;;;;;;0.10;0.10;;;21.00;64.80;;;;;;4997278;28;20047;-65
2023/06/12 07:13:23;;;;;;;0.00;0.00;;;21.10;64.30;;;;;;4998679;28;20038;-65
2023/06/12 07:15:51;;;;;;;1.23;0.70;;;21.10;64.70;;;;;;4999788;28;20065;-65
2023/06/12 07:18:17;;;;;;;0.00;0.00;;;21.20;64.20;;;;;;4994359;28;20123;-66
2023/06/12 07:20:43;;;;;;;0.00;0.00;;;21.20;64.30;;;;;;4996896;28;20038;-65
2023/06/12 07:23:08;;;;;;;0.00;0.00;;;21.20;64.60;;;;;;4996928;28;20112;-66
2023/06/12 07:25:34;;;;;;;0.00;0.00;;;21.30;64.20;;;;;;4995214;28;20057;-66
2023/06/12 07:28:00;;;;;;;0.00;0.00;;;21.30;64.60;;;;;;4996878;28;20049;-66
2023/06/12 07:30:26;;;;;;;0.10;0.10;;;21.40;64.00;;;;;;4997609;28;20034;-66
2023/06/12 07:32:52;;;;;;;0.00;0.00;;;21.40;63.50;;;;;;4997438;28;20057;-66
2023/06/12 07:35:18;;;;;;;0.00;0.00;;;21.50;63.40;;;;;;4999629;28;20042;-65
2023/06/12 07:37:45;;;;;;;0.00;0.00;;;21.50;63.90;;;;;;4999344;28;20174;-65
2023/06/12 07:40:11;;;;;;;0.00;0.00;;;21.50;63.80;;;;;;4999680;28;20070;-66
2023/06/12 07:42:37;;;;;;;0.00;0.00;;;21.60;64.00;;;;;;5002122;28;20065;-66
2023/06/12 07:45:03;;;;;;;0.00;0.00;;;21.70;63.70;;;;;;5001994;28;20038;-65
2023/06/12 07:47:29;;;;;;;0.05;0.05;;;21.80;63.60;;;;;;4996711;28;20053;-65
2023/06/12 07:49:55;;;;;;;0.52;0.35;;;21.80;62.90;;;;;;4996849;28;20046;-66
2023/06/12 07:52:21;;;;;;;0.00;0.00;;;21.80;62.70;;;;;;4975374;28;20046;-66
2023/06/12 07:54:48;;;;;;;0.00;0.00;;;21.90;62.80;;;;;;4998013;28;20507;-67
2023/06/12 07:57:13;;;;;;;0.00;0.00;;;21.90;62.50;;;;;;4980597;28;20070;-66
2023/06/12 07:59:39;;;;;;;0.00;0.00;;;21.90;62.50;;;;;;4970409;28;20081;-66
2023/06/12 08:02:06;;;;;;;0.00;0.00;;;21.90;63.80;;;;;;4997548;28;20104;-65
2023/06/12 08:04:33;;;;;;;0.00;0.00;;;22.00;63.20;;;;;;4998643;28;20043;-65
2023/06/12 08:07:00;;;;;;;0.00;0.00;;;22.00;63.60;;;;;;4997490;28;20058;-66
2023/06/12 08:09:26;;;;;;;0.00;0.00;;;22.10;64.30;;;;;;4997038;28;20050;-65
2023/06/12 08:11:52;;;;;;;0.00;0.00;;;22.10;63.20;;;;;;4975558;28;20038;-65
2023/06/12 08:14:18;;;;;;;0.00;0.00;;;22.20;63.00;;;;;;4978550;28;20053;-65
2023/06/12 08:16:45;;;;;;;0.00;0.00;;;22.30;63.50;;;;;;4995619;28;20491;-65
2023/06/12 08:19:12;;;;;;;0.00;0.00;;;22.30;63.30;;;;;;4997452;28;20045;-65
2023/06/12 08:21:39;;;;;;;0.00;0.00;;;22.40;63.10;;;;;;4986628;28;20049;-65
2023/06/12 08:24:07;;;;;;;0.00;0.00;;;22.40;62.70;;;;;;4979476;28;20053;-65
2023/06/12 08:26:33;;;;;;;25.55;1.02;;;22.50;62.60;;;;;;4980802;28;20043;-64
2023/06/12 08:28:59;;;;;;;0.00;0.00;;;22.50;62.80;;;;;;4967562;28;20125;-65
2023/06/12 08:31:24;;;;;;;0.00;0.00;;;22.50;62.60;;;;;;4980369;28;20042;-65
2023/06/12 08:33:50;;;;;;;0.00;0.00;;;22.60;61.70;;;;;;4950448;28;20078;-65
2023/06/12 08:36:15;;;;;;;0.00;0.00;;;22.70;61.80;;;;;;4965796;28;20117;-65
2023/06/12 08:38:41;;;;;;;0.00;0.00;;;22.80;61.60;;;;;;4988718;28;20105;-65
2023/06/12 08:41:07;;;;;;;0.15;0.15;;;22.90;61.30;;;;;;4979834;28;20047;-66
2023/06/12 08:43:34;;;;;;;0.00;0.00;;;22.90;61.40;;;;;;4983355;28;20049;-65
2023/06/12 08:46:03;;;;;;;0.47;0.47;;;23.00;61.40;;;;;;4966209;28;20061;-65
2023/06/12 08:48:30;;;;;;;0.00;0.00;;;23.10;60.40;;;;;;4989850;28;20050;-65
2023/06/12 08:50:56;;;;;;;0.00;0.00;;;23.20;60.60;;;;;;4987329;28;20110;-64
2023/06/12 08:53:22;;;;;;;0.22;0.22;;;23.20;60.30;;;;;;4984156;28;20041;-65
2023/06/12 08:55:50;;;;;;;0.00;0.00;;;23.30;59.90;;;;;;4981030;28;20135;-66
2023/06/12 08:58:15;;;;;;;0.00;0.00;;;23.40;58.90;;;;;;4983412;28;20054;-65
2023/06/12 09:00:41;;;;;;;0.00;0.00;;;23.50;57.50;;;;;;4992239;28;20415;-66
2023/06/12 09:03:07;;;;;;;0.10;0.10;;;23.50;57.90;;;;;;4995263;28;20038;-65
2023/06/12 09:05:38;;;;;;;0.00;0.00;;;23.60;55.60;;;;;;4996871;28;20738;-65
2023/06/12 09:08:05;;;;;;;5.95;1.80;;;23.60;55.80;;;;;;4994565;28;20034;-65
2023/06/12 09:10:31;;;;;;;0.13;0.13;;;23.70;55.40;;;;;;4997602;28;20050;-65
2023/06/12 09:12:58;;;;;;;0.00;0.00;;;23.80;54.50;;;;;;4981629;28;20091;-65
2023/06/12 09:15:24;;;;;;;0.00;0.00;;;23.80;55.70;;;;;;4975431;28;20046;-65
2023/06/12 09:17:51;;;;;;;0.03;0.03;;;23.90;55.30;;;;;;4988156;28;20601;-65
2023/06/12 09:20:32;;;;;;;0.00;0.00;;;24.00;54.90;;;;;;4978970;28;20042;-66
2023/06/12 09:23:00;;;;;;;0.00;0.00;;;24.00;54.30;;;;;;4986761;28;20038;-65
2023/06/12 09:25:42;;;;;;;0.10;0.10;;;24.10;53.10;;;;;;4981935;28;20042;-65
2023/06/12 09:28:09;;;;;;;0.00;0.00;;;24.10;53.20;;;;;;4962432;28;20050;-66
2023/06/12 09:30:39;;;;;;;0.00;0.00;;;24.20;52.60;;;;;;4966564;28;20049;-66
2023/06/12 09:33:06;;;;;;;0.00;0.00;;;24.30;53.40;;;;;;4986627;28;20046;-66
2023/06/12 09:35:32;;;;;;;0.00;0.00;;;24.30;53.20;;;;;;4970282;28;20050;-66
2023/06/12 09:37:58;;;;;;;0.00;0.00;;;24.50;52.90;;;;;;4983642;28;21137;-65
2023/06/12 09:40:24;;;;;;;0.00;0.00;;;24.50;53.10;;;;;;4980904;28;20526;-66
2023/06/12 09:42:49;;;;;;;0.10;0.10;;;24.60;53.30;;;;;;4987243;28;20038;-67
2023/06/12 09:45:17;;;;;;;0.03;0.03;;;24.60;52.90;;;;;;4972947;28;20520;-66
2023/06/12 09:47:49;;;;;;;0.38;0.38;;;24.70;53.00;;;;;;4970283;28;20054;-66
2023/06/12 09:50:16;;;;;;;0.00;0.00;;;24.80;53.00;;;;;;4982900;28;20158;-66
2023/06/12 09:52:46;;;;;;;0.10;0.10;;;24.80;53.10;;;;;;4967009;28;20061;-67
2023/06/12 09:55:16;;;;;;;0.00;0.00;;;24.80;53.50;;;;;;4981633;28;20055;-66
2023/06/12 09:57:45;;;;;;;0.00;0.00;;;24.80;52.50;;;;;;4984739;28;20294;-66
2023/06/12 10:00:12;;;;;;;0.10;0.10;;;24.80;52.30;;;;;;4982645;28;20030;-66
2023/06/12 10:02:45;;;;;;;0.00;0.00;;;24.80;50.20;;;;;;4979643;28;20053;-66
2023/06/12 10:05:16;;;;;;;0.05;0.05;;;24.90;50.60;;;;;;4979198;28;20507;-66
2023/06/12 10:07:47;;;;;;;0.10;0.10;;;24.80;49.00;;;;;;4983750;28;20035;-65
2023/06/12 10:10:17;;;;;;;0.05;0.05;;;24.80;49.40;;;;;;4974256;28;20042;-63
2023/06/12 10:12:44;;;;;;;0.00;0.00;;;25.00;49.90;;;;;;4983521;28;20168;-68
2023/06/12 10:15:12;;;;;;;0.00;0.00;;;25.00;49.90;;;;;;4979688;28;20034;-66
2023/06/12 10:17:40;;;;;;;0.00;0.00;;;25.00;48.20;;;;;;4981540;28;20098;-66
2023/06/12 10:20:09;;;;;;;0.00;0.00;;;25.10;45.20;;;;;;4980400;28;20035;-66
2023/06/12 10:22:35;;;;;;;0.00;0.00;;;25.20;46.00;;;;;;4976750;28;20038;-66
2023/06/12 10:25:02;;;;;;;0.35;0.32;;;25.30;45.20;;;;;;4978482;28;20049;-66
2023/06/12 10:27:29;;;;;;;0.00;0.00;;;25.40;45.10;;;;;;4986762;28;20073;-66
2023/06/12 10:29:57;;;;;;;0.00;0.00;;;25.50;44.60;;;;;;4959233;28;20055;-67
2023/06/12 10:32:23;;;;;;;0.00;0.00;;;25.50;46.00;;;;;;4979810;28;20035;-66
2023/06/12 10:34:53;;;;;;;0.00;0.00;;;25.60;45.50;;;;;;4972287;28;20091;-66
2023/06/12 10:37:24;;;;;;;0.00;0.00;;;25.70;46.40;;;;;;4979343;28;20042;-66
2023/06/12 10:40:18;;;;;;;0.00;0.00;;;25.80;46.20;;;;;;4979224;28;20513;-66
2023/06/12 10:42:53;;;;;;;0.00;0.00;;;25.90;46.20;;;;;;4962497;28;20497;-66
2023/06/12 10:45:18;;;;;;;0.00;0.00;;;26.00;43.60;;;;;;4944794;28;20050;-66
2023/06/12 10:48:02;;;;;;;0.00;0.00;;;26.00;44.20;;;;;;4960781;28;20046;-66
2023/06/12 10:50:48;;;;;;;0.10;0.10;;;26.00;43.50;;;;;;4972533;28;20035;-67
2023/06/12 10:53:26;;;;;;;0.40;0.32;;;26.00;43.90;;;;;;4973900;28;20075;-66
2023/06/12 10:56:06;;;;;;;0.00;0.00;;;26.10;43.50;;;;;;4978851;28;20122;-66
2023/06/12 10:58:37;;;;;;;0.00;0.00;;;26.20;43.20;;;;;;4964877;28;20065;-65
2023/06/12 11:01:10;;;;;;;0.00;0.00;;;26.30;43.40;;;;;;4982498;28;20415;-66
2023/06/12 11:03:43;;;;;;;0.00;0.00;;;26.40;42.60;;;;;;4976295;28;20167;-65
2023/06/12 11:06:13;;;;;;;0.00;0.00;;;26.50;41.20;;;;;;4963614;28;20050;-66
2023/06/12 11:08:42;;;;;;;0.05;0.05;;;26.60;41.00;;;;;;4988796;28;20042;-66
2023/06/12 11:11:12;;;;;;;0.00;0.00;;;26.60;39.40;;;;;;4967969;28;20050;-66
2023/06/12 11:13:42;;;;;;;0.73;0.65;;;26.70;39.80;;;;;;4973698;28;20047;-66
2023/06/12 11:16:12;;;;;;;0.15;0.10;;;26.70;38.00;;;;;;4980246;28;20530;-66
2023/06/12 11:18:37;;;;;;;0.00;0.00;;;26.80;40.40;;;;;;4971679;28;20047;-69
2023/06/12 11:21:03;;;;;;;0.15;0.15;;;27.00;42.00;;;;;;4988564;28;20049;-66
2023/06/12 11:23:29;;;;;;;0.13;0.13;;;27.10;40.30;;;;;;4971071;28;20106;-66
2023/06/12 11:25:56;;;;;;;0.00;0.00;;;27.20;38.90;;;;;;4963113;28;20050;-66
2023/06/12 11:28:23;;;;;;;1.98;1.30;;;27.20;38.90;;;;;;4994748;28;20667;-65
2023/06/12 11:30:56;;;;;;;0.00;0.00;;;27.30;39.60;;;;;;4981290;28;20500;-65
2023/06/12 11:33:22;;;;;;;0.00;0.00;;;27.30;39.00;;;;;;4978241;28;20056;-65
2023/06/12 11:35:50;;;;;;;0.00;0.00;;;27.40;39.20;;;;;;4975850;28;20499;-66
2023/06/12 11:38:18;;;;;;;0.00;0.00;;;27.50;39.10;;;;;;4994072;28;20047;-63
2023/06/12 11:40:45;;;;;;;0.00;0.00;;;27.50;41.10;;;;;;4999400;28;20061;-66
2023/06/12 11:43:11;;;;;;;0.10;0.10;;;27.60;38.80;;;;;;4999120;28;20054;-67
2023/06/12 11:45:43;;;;;;;0.00;0.00;;;27.60;38.00;;;;;;4997499;28;20133;-67
2023/06/12 11:48:14;;;;;;;0.20;0.20;;;27.70;39.60;;;;;;4998161;28;20049;-67
2023/06/12 11:50:50;;;;;;;0.00;0.00;;;27.80;38.40;;;;;;4996891;28;20043;-66
2023/06/12 11:53:17;;;;;;;0.05;0.05;;;27.80;36.90;;;;;;4997750;28;20098;-65
2023/06/12 11:55:56;;;;;;;0.00;0.00;;;27.90;36.90;;;;;;4997693;28;20141;-66
2023/06/12 11:58:35;;;;;;;0.00;0.00;;;27.90;35.90;;;;;;4998328;28;20041;-66
2023/06/12 12:01:23;;;;;;;0.00;0.00;;;27.90;36.70;;;;;;4998515;28;20120;-66
2023/06/12 12:03:50;;;;;;;0.00;0.00;;;28.00;37.00;;;;;;4997600;28;20839;-66
2023/06/12 12:06:16;;;;;;;0.00;0.00;;;28.00;36.80;;;;;;4981598;28;20045;-66
2023/06/12 12:08:42;;;;;;;0.00;0.00;;;28.20;36.80;;;;;;4998335;28;20084;-66
2023/06/12 12:11:21;;;;;;;0.00;0.00;;;28.30;38.80;;;;;;4999853;28;20074;-66
2023/06/12 12:13:59;;;;;;;0.00;0.00;;;28.50;38.60;;;;;;4995485;28;20069;-66
2023/06/12 12:16:26;;;;;;;0.00;0.00;;;28.60;36.70;;;;;;4998977;28;20042;-66
2023/06/12 12:18:53;;;;;;;0.00;0.00;;;28.80;37.10;;;;;;4998325;28;20677;-66
2023/06/12 12:21:19;;;;;;;0.00;0.00;;;28.90;35.40;;;;;;4997433;28;20061;-66
2023/06/12 12:23:45;;;;;;;0.00;0.00;;;28.90;36.30;;;;;;4976730;28;20043;-66
2023/06/12 12:26:12;;;;;;;0.20;0.20;;;28.90;35.10;;;;;;4997694;28;20053;-66
2023/06/12 12:28:38;;;;;;;0.00;0.00;;;29.00;37.10;;;;;;4997671;28;20138;-66
2023/06/12 12:31:03;;;;;;;0.10;0.10;;;29.00;36.00;;;;;;4998940;28;20091;-66
2023/06/12 12:33:29;;;;;;;0.00;0.00;;;29.10;37.40;;;;;;4976704;28;20042;-66
2023/06/12 12:35:57;;;;;;;0.20;0.20;;;29.20;38.30;;;;;;4999198;28;20398;-66
2023/06/12 12:38:23;;;;;;;0.00;0.00;;;29.30;38.30;;;;;;4995826;28;20100;-66
2023/06/12 12:40:48;;;;;;;0.00;0.00;;;29.50;36.90;;;;;;4996825;28;20042;-66
2023/06/12 12:43:14;;;;;;;0.00;0.00;;;29.50;36.10;;;;;;4999455;28;20045;-66
2023/06/12 12:45:40;;;;;;;0.10;0.10;;;29.50;35.10;;;;;;4997158;28;20581;-66
2023/06/12 12:48:05;;;;;;;0.00;0.00;;;29.50;35.00;;;;;;4997525;28;20053;-66
2023/06/12 12:50:31;;;;;;;0.30;0.30;;;29.40;34.90;;;;;;4977470;28;20430;-66